sensor_id;sensor_type;location;lat;lon;timestamp;pressure;altitude;pressure_sealevel;temperature;humidity
36980;BME280;22891;50.562;7.272;2023-02-08T00:01:37;102607.00;;;-3.24;nan
36980;BME280;22891;50.562;7.272;2023-02-08T00:04:03;102589.00;;;-3.04;nan
36980;BME280;22891;50.562;7.272;2023-02-08T00:06:29;102599.00;;;-3.20;nan
36980;BME280;22891;50.562;7.272;2023-02-08T00:08:55;102591.00;;;-3.12;nan
36980;BME280;22891;50.562;7.272;2023-02-08T00:11:21;102593.00;;;-3.25;nan
36980;BME280;22891;50.562;7.272;2023-02-08T00:13:47;102577.00;;;-3.36;nan
36980;BME280;22891;50.562;7.272;2023-02-08T00:16:13;102571.00;;;-3.40;nan
36980;BME280;22891;50.562;7.272;2023-02-08T00:18:39;102573.00;;;-3.29;nan
36980;BME280;22891;50.562;7.272;2023-02-08T00:21:13;102584.00;;;-3.44;nan
36980;BME280;22891;50.562;7.272;2023-02-08T00:23:39;102579.00;;;-3.40;nan
36980;BME280;22891;50.562;7.272;2023-02-08T00:26:05;102563.00;;;-3.44;nan
36980;BME280;22891;50.562;7.272;2023-02-08T00:28:32;102555.00;;;-3.36;nan
36980;BME280;22891;50.562;7.272;2023-02-08T00:30:57;102546.00;;;-3.27;nan
36980;BME280;22891;50.562;7.272;2023-02-08T00:33:23;102542.00;;;-3.29;nan
36980;BME280;22891;50.562;7.272;2023-02-08T00:35:49;102550.00;;;-3.28;nan
36980;BME280;22891;50.562;7.272;2023-02-08T00:38:14;102546.00;;;-3.30;nan
36980;BME280;22891;50.562;7.272;2023-02-08T00:40:40;102550.00;;;-3.33;nan
36980;BME280;22891;50.562;7.272;2023-02-08T00:43:06;102548.00;;;-3.56;nan
36980;BME280;22891;50.562;7.272;2023-02-08T00:45:32;102529.00;;;-3.46;nan
36980;BME280;22891;50.562;7.272;2023-02-08T00:47:58;102524.00;;;-3.33;nan
36980;BME280;22891;50.562;7.272;2023-02-08T00:50:24;102520.00;;;-3.48;nan
36980;BME280;22891;50.562;7.272;2023-02-08T00:52:49;102538.00;;;-3.62;nan
36980;BME280;22891;50.562;7.272;2023-02-08T00:55:15;102528.00;;;-3.64;nan
36980;BME280;22891;50.562;7.272;2023-02-08T00:57:41;102512.00;;;-3.65;nan
36980;BME280;22891;50.562;7.272;2023-02-08T01:00:07;102513.00;;;-3.58;nan
36980;BME280;22891;50.562;7.272;2023-02-08T01:02:33;102514.00;;;-3.54;nan
36980;BME280;22891;50.562;7.272;2023-02-08T01:04:59;102506.00;;;-3.50;nan
36980;BME280;22891;50.562;7.272;2023-02-08T01:07:25;102516.00;;;-3.34;nan
36980;BME280;22891;50.562;7.272;2023-02-08T01:09:51;102513.00;;;-3.31;nan
36980;BME280;22891;50.562;7.272;2023-02-08T01:12:16;102514.00;;;-3.30;nan
36980;BME280;22891;50.562;7.272;2023-02-08T01:14:42;102525.00;;;-3.51;nan
36980;BME280;22891;50.562;7.272;2023-02-08T01:17:08;102527.00;;;-3.47;nan
36980;BME280;22891;50.562;7.272;2023-02-08T01:19:34;102512.00;;;-3.56;nan
36980;BME280;22891;50.562;7.272;2023-02-08T01:22:00;102515.00;;;-3.51;nan
36980;BME280;22891;50.562;7.272;2023-02-08T01:24:26;102497.00;;;-3.57;nan
36980;BME280;22891;50.562;7.272;2023-02-08T01:26:52;102498.00;;;-3.59;nan
36980;BME280;22891;50.562;7.272;2023-02-08T01:29:17;102491.00;;;-3.50;nan
36980;BME280;22891;50.562;7.272;2023-02-08T01:31:44;102492.00;;;-3.52;nan
36980;BME280;22891;50.562;7.272;2023-02-08T01:34:10;102492.00;;;-3.64;nan
36980;BME280;22891;50.562;7.272;2023-02-08T01:36:38;102506.00;;;-3.77;nan
36980;BME280;22891;50.562;7.272;2023-02-08T01:39:05;102502.00;;;-3.70;nan
36980;BME280;22891;50.562;7.272;2023-02-08T01:41:34;102502.00;;;-3.76;nan
36980;BME280;22891;50.562;7.272;2023-02-08T01:46:44;102490.00;;;-3.59;nan
36980;BME280;22891;50.562;7.272;2023-02-08T01:49:21;102499.00;;;-3.61;nan
36980;BME280;22891;50.562;7.272;2023-02-08T01:52:36;102494.00;;;-3.63;nan
36980;BME280;22891;50.562;7.272;2023-02-08T01:55:13;102488.00;;;-3.70;nan
36980;BME280;22891;50.562;7.272;2023-02-08T01:57:42;102482.00;;;-3.76;nan
36980;BME280;22891;50.562;7.272;2023-02-08T02:00:14;102481.00;;;-3.77;nan
36980;BME280;22891;50.562;7.272;2023-02-08T02:02:41;102469.00;;;-3.63;nan
36980;BME280;22891;50.562;7.272;2023-02-08T02:05:08;102477.00;;;-3.58;nan
36980;BME280;22891;50.562;7.272;2023-02-08T02:07:35;102482.00;;;-3.64;nan
36980;BME280;22891;50.562;7.272;2023-02-08T02:13:07;102462.00;;;-3.67;nan
36980;BME280;22891;50.562;7.272;2023-02-08T02:15:34;102451.00;;;-3.62;nan
36980;BME280;22891;50.562;7.272;2023-02-08T02:18:01;102454.00;;;-3.61;nan
36980;BME280;22891;50.562;7.272;2023-02-08T02:36:44;102413.00;;;-3.77;nan
36980;BME280;22891;50.562;7.272;2023-02-08T02:39:42;102410.00;;;-3.78;nan
36980;BME280;22891;50.562;7.272;2023-02-08T02:44:01;102403.00;;;-3.71;nan
36980;BME280;22891;50.562;7.272;2023-02-08T02:46:42;102421.00;;;-3.89;nan
36980;BME280;22891;50.562;7.272;2023-02-08T02:49:25;102418.00;;;-3.84;nan
36980;BME280;22891;50.562;7.272;2023-02-08T02:52:01;102421.00;;;-3.76;nan
36980;BME280;22891;50.562;7.272;2023-02-08T02:54:39;102419.00;;;-3.95;nan
36980;BME280;22891;50.562;7.272;2023-02-08T02:57:09;102418.00;;;-3.96;nan
36980;BME280;22891;50.562;7.272;2023-02-08T02:59:37;102411.00;;;-4.03;nan
36980;BME280;22891;50.562;7.272;2023-02-08T03:02:04;102401.00;;;-3.94;nan
36980;BME280;22891;50.562;7.272;2023-02-08T03:04:51;102402.00;;;-3.93;nan
36980;BME280;22891;50.562;7.272;2023-02-08T03:08:09;102387.00;;;-4.06;nan
36980;BME280;22891;50.562;7.272;2023-02-08T03:11:33;102375.00;;;-4.06;nan
36980;BME280;22891;50.562;7.272;2023-02-08T03:25:26;102388.00;;;-3.98;nan
36980;BME280;22891;50.562;7.272;2023-02-08T03:28:23;102397.00;;;-3.96;nan
36980;BME280;22891;50.562;7.272;2023-02-08T03:31:13;102395.00;;;-3.93;nan
36980;BME280;22891;50.562;7.272;2023-02-08T03:33:53;102399.00;;;-3.92;nan
36980;BME280;22891;50.562;7.272;2023-02-08T03:39:19;102409.00;;;-3.98;nan
36980;BME280;22891;50.562;7.272;2023-02-08T03:41:48;102409.00;;;-3.92;nan
36980;BME280;22891;50.562;7.272;2023-02-08T03:44:22;102408.00;;;-3.92;nan
36980;BME280;22891;50.562;7.272;2023-02-08T03:47:11;102410.00;;;-3.82;nan
36980;BME280;22891;50.562;7.272;2023-02-08T03:49:40;102451.00;;;-3.91;nan
36980;BME280;22891;50.562;7.272;2023-02-08T03:52:09;102421.00;;;-3.91;nan
36980;BME280;22891;50.562;7.272;2023-02-08T03:54:38;102427.00;;;-4.03;nan
36980;BME280;22891;50.562;7.272;2023-02-08T03:57:28;102424.00;;;-3.92;nan
36980;BME280;22891;50.562;7.272;2023-02-08T04:00:10;102419.00;;;-4.10;nan
36980;BME280;22891;50.562;7.272;2023-02-08T04:03:13;102409.00;;;-4.03;nan
36980;BME280;22891;50.562;7.272;2023-02-08T04:05:42;102412.00;;;-4.05;nan
36980;BME280;22891;50.562;7.272;2023-02-08T04:08:08;102414.00;;;-4.01;nan
36980;BME280;22891;50.562;7.272;2023-02-08T04:10:34;102421.00;;;-4.06;nan
36980;BME280;22891;50.562;7.272;2023-02-08T04:13:00;102423.00;;;-3.90;nan
36980;BME280;22891;50.562;7.272;2023-02-08T04:15:25;102438.00;;;-4.11;nan
36980;BME280;22891;50.562;7.272;2023-02-08T04:17:52;102432.00;;;-4.11;nan
36980;BME280;22891;50.562;7.272;2023-02-08T04:20:18;102437.00;;;-4.15;nan
36980;BME280;22891;50.562;7.272;2023-02-08T04:22:44;102430.00;;;-4.13;nan
36980;BME280;22891;50.562;7.272;2023-02-08T04:25:10;102430.00;;;-4.19;nan
36980;BME280;22891;50.562;7.272;2023-02-08T04:27:35;102427.00;;;-4.27;nan
36980;BME280;22891;50.562;7.272;2023-02-08T04:30:03;102420.00;;;-4.25;nan
36980;BME280;22891;50.562;7.272;2023-02-08T04:32:29;102415.00;;;-4.30;nan
36980;BME280;22891;50.562;7.272;2023-02-08T04:34:54;102399.00;;;-4.34;nan
36980;BME280;22891;50.562;7.272;2023-02-08T04:37:20;102388.00;;;-4.41;nan
36980;BME280;22891;50.562;7.272;2023-02-08T04:39:45;102374.00;;;-4.27;nan
36980;BME280;22891;50.562;7.272;2023-02-08T04:42:11;102384.00;;;-4.40;nan
36980;BME280;22891;50.562;7.272;2023-02-08T04:44:37;102388.00;;;-4.33;nan
36980;BME280;22891;50.562;7.272;2023-02-08T04:47:03;102387.00;;;-4.29;nan
36980;BME280;22891;50.562;7.272;2023-02-08T04:49:28;102382.00;;;-4.20;nan
36980;BME280;22891;50.562;7.272;2023-02-08T04:51:54;102387.00;;;-4.24;nan
36980;BME280;22891;50.562;7.272;2023-02-08T04:54:20;102390.00;;;-4.24;nan
36980;BME280;22891;50.562;7.272;2023-02-08T04:56:46;102383.00;;;-4.15;nan
36980;BME280;22891;50.562;7.272;2023-02-08T04:59:11;102387.00;;;-4.11;nan
36980;BME280;22891;50.562;7.272;2023-02-08T05:01:37;102389.00;;;-4.16;nan
36980;BME280;22891;50.562;7.272;2023-02-08T05:04:03;102395.00;;;-4.09;nan
36980;BME280;22891;50.562;7.272;2023-02-08T05:06:29;102401.00;;;-4.15;nan
36980;BME280;22891;50.562;7.272;2023-02-08T05:08:55;102386.00;;;-4.05;nan
36980;BME280;22891;50.562;7.272;2023-02-08T05:11:21;102380.00;;;-4.09;nan
36980;BME280;22891;50.562;7.272;2023-02-08T05:13:48;102390.00;;;-4.06;nan
36980;BME280;22891;50.562;7.272;2023-02-08T05:16:15;102378.00;;;-3.98;nan
36980;BME280;22891;50.562;7.272;2023-02-08T05:18:41;102378.00;;;-4.13;nan
36980;BME280;22891;50.562;7.272;2023-02-08T05:21:07;102379.00;;;-4.07;nan
36980;BME280;22891;50.562;7.272;2023-02-08T05:23:32;102383.00;;;-4.21;nan
36980;BME280;22891;50.562;7.272;2023-02-08T05:25:58;102374.00;;;-4.28;nan
36980;BME280;22891;50.562;7.272;2023-02-08T05:28:25;102399.00;;;-4.22;nan
36980;BME280;22891;50.562;7.272;2023-02-08T05:30:50;102399.00;;;-4.37;nan
36980;BME280;22891;50.562;7.272;2023-02-08T05:33:16;102403.00;;;-4.26;nan
36980;BME280;22891;50.562;7.272;2023-02-08T05:35:44;102397.00;;;-4.22;nan
36980;BME280;22891;50.562;7.272;2023-02-08T05:38:09;102395.00;;;-4.21;nan
36980;BME280;22891;50.562;7.272;2023-02-08T05:40:35;102399.00;;;-4.28;nan
36980;BME280;22891;50.562;7.272;2023-02-08T05:43:01;102398.00;;;-4.46;nan
36980;BME280;22891;50.562;7.272;2023-02-08T05:45:27;102384.00;;;-4.58;nan
36980;BME280;22891;50.562;7.272;2023-02-08T05:47:52;102366.00;;;-4.44;nan
36980;BME280;22891;50.562;7.272;2023-02-08T05:50:18;102360.00;;;-4.19;nan
36980;BME280;22891;50.562;7.272;2023-02-08T05:52:44;102356.00;;;-4.10;nan
36980;BME280;22891;50.562;7.272;2023-02-08T05:55:10;102359.00;;;-4.09;nan
36980;BME280;22891;50.562;7.272;2023-02-08T05:57:35;102364.00;;;-4.34;nan
36980;BME280;22891;50.562;7.272;2023-02-08T06:00:04;102371.00;;;-4.29;nan
36980;BME280;22891;50.562;7.272;2023-02-08T06:02:31;102373.00;;;-4.28;nan
36980;BME280;22891;50.562;7.272;2023-02-08T06:04:56;102389.00;;;-4.49;nan
36980;BME280;22891;50.562;7.272;2023-02-08T06:07:22;102385.00;;;-4.52;nan
36980;BME280;22891;50.562;7.272;2023-02-08T06:09:48;102384.00;;;-4.55;nan
36980;BME280;22891;50.562;7.272;2023-02-08T06:12:14;102378.00;;;-4.42;nan
36980;BME280;22891;50.562;7.272;2023-02-08T06:14:40;102383.00;;;-4.46;nan
36980;BME280;22891;50.562;7.272;2023-02-08T06:17:05;102393.00;;;-4.62;nan
36980;BME280;22891;50.562;7.272;2023-02-08T06:19:31;102387.00;;;-4.68;nan
36980;BME280;22891;50.562;7.272;2023-02-08T06:21:56;102392.00;;;-4.74;nan
36980;BME280;22891;50.562;7.272;2023-02-08T06:24:22;102391.00;;;-4.73;nan
36980;BME280;22891;50.562;7.272;2023-02-08T06:26:49;102392.00;;;-4.69;nan
36980;BME280;22891;50.562;7.272;2023-02-08T06:29:15;102389.00;;;-4.70;nan
36980;BME280;22891;50.562;7.272;2023-02-08T06:31:41;102396.00;;;-4.69;nan
36980;BME280;22891;50.562;7.272;2023-02-08T06:34:07;102405.00;;;-4.58;nan
36980;BME280;22891;50.562;7.272;2023-02-08T06:36:32;102401.00;;;-4.60;nan
36980;BME280;22891;50.562;7.272;2023-02-08T06:38:58;102404.00;;;-4.52;nan
36980;BME280;22891;50.562;7.272;2023-02-08T06:41:25;102412.00;;;-4.62;nan
36980;BME280;22891;50.562;7.272;2023-02-08T06:43:51;102419.00;;;-4.64;nan
36980;BME280;22891;50.562;7.272;2023-02-08T06:46:17;102415.00;;;-4.76;nan
36980;BME280;22891;50.562;7.272;2023-02-08T06:48:43;102412.00;;;-4.62;nan
36980;BME280;22891;50.562;7.272;2023-02-08T06:51:08;102410.00;;;-4.52;nan
36980;BME280;22891;50.562;7.272;2023-02-08T06:53:34;102412.00;;;-4.54;nan
36980;BME280;22891;50.562;7.272;2023-02-08T06:56:00;102417.00;;;-4.47;nan
36980;BME280;22891;50.562;7.272;2023-02-08T06:58:26;102417.00;;;-4.60;nan
36980;BME280;22891;50.562;7.272;2023-02-08T07:00:52;102416.00;;;-4.60;nan
36980;BME280;22891;50.562;7.272;2023-02-08T07:03:17;102412.00;;;-4.51;nan
36980;BME280;22891;50.562;7.272;2023-02-08T07:05:43;102427.00;;;-4.60;nan
36980;BME280;22891;50.562;7.272;2023-02-08T07:08:09;102427.00;;;-4.69;nan
36980;BME280;22891;50.562;7.272;2023-02-08T07:10:37;102423.00;;;-4.68;nan
36980;BME280;22891;50.562;7.272;2023-02-08T07:13:05;102418.00;;;-4.79;nan
36980;BME280;22891;50.562;7.272;2023-02-08T07:15:31;102420.00;;;-4.65;nan
36980;BME280;22891;50.562;7.272;2023-02-08T07:17:57;102406.00;;;-4.63;nan
36980;BME280;22891;50.562;7.272;2023-02-08T07:20:22;102414.00;;;-4.53;nan
36980;BME280;22891;50.562;7.272;2023-02-08T07:22:48;102423.00;;;-4.68;nan
36980;BME280;22891;50.562;7.272;2023-02-08T07:25:14;102408.00;;;-4.65;nan
36980;BME280;22891;50.562;7.272;2023-02-08T07:27:40;102409.00;;;-4.79;nan
36980;BME280;22891;50.562;7.272;2023-02-08T07:30:06;102396.00;;;-4.72;nan
36980;BME280;22891;50.562;7.272;2023-02-08T07:32:33;102396.00;;;-4.66;nan
36980;BME280;22891;50.562;7.272;2023-02-08T07:34:59;102395.00;;;-4.55;nan
36980;BME280;22891;50.562;7.272;2023-02-08T07:37:25;102384.00;;;-4.59;nan
36980;BME280;22891;50.562;7.272;2023-02-08T07:39:51;102375.00;;;-4.48;nan
36980;BME280;22891;50.562;7.272;2023-02-08T07:42:17;102365.00;;;-4.27;nan
36980;BME280;22891;50.562;7.272;2023-02-08T07:44:42;102371.00;;;-4.28;nan
36980;BME280;22891;50.562;7.272;2023-02-08T07:47:08;102372.00;;;-4.29;nan
36980;BME280;22891;50.562;7.272;2023-02-08T07:49:34;102367.00;;;-4.05;nan
36980;BME280;22891;50.562;7.272;2023-02-08T07:52:00;102356.00;;;-4.08;nan
36980;BME280;22891;50.562;7.272;2023-02-08T07:54:26;102338.00;;;-3.86;nan
36980;BME280;22891;50.562;7.272;2023-02-08T07:56:52;102348.00;;;-3.93;nan
36980;BME280;22891;50.562;7.272;2023-02-08T07:59:17;102328.00;;;-3.85;nan
36980;BME280;22891;50.562;7.272;2023-02-08T08:01:43;102330.00;;;-3.94;nan
36980;BME280;22891;50.562;7.272;2023-02-08T08:04:09;102326.00;;;-3.73;nan
36980;BME280;22891;50.562;7.272;2023-02-08T08:06:35;102320.00;;;-3.63;nan
36980;BME280;22891;50.562;7.272;2023-02-08T08:09:01;102321.00;;;-3.73;nan
36980;BME280;22891;50.562;7.272;2023-02-08T08:11:26;102324.00;;;-3.54;nan
36980;BME280;22891;50.562;7.272;2023-02-08T08:13:52;102327.00;;;-3.37;nan
36980;BME280;22891;50.562;7.272;2023-02-08T08:16:18;102322.00;;;-3.34;nan
36980;BME280;22891;50.562;7.272;2023-02-08T08:18:45;102325.00;;;-3.21;nan
36980;BME280;22891;50.562;7.272;2023-02-08T08:21:11;102325.00;;;-3.09;nan
36980;BME280;22891;50.562;7.272;2023-02-08T08:23:37;102333.00;;;-2.95;nan
36980;BME280;22891;50.562;7.272;2023-02-08T08:26:11;102334.00;;;-3.00;nan
36980;BME280;22891;50.562;7.272;2023-02-08T08:28:38;102339.00;;;-2.91;nan
36980;BME280;22891;50.562;7.272;2023-02-08T08:31:12;102322.00;;;-2.50;nan
36980;BME280;22891;50.562;7.272;2023-02-08T08:33:38;102318.00;;;-2.52;nan
36980;BME280;22891;50.562;7.272;2023-02-08T08:36:05;102332.00;;;-2.59;nan
36980;BME280;22891;50.562;7.272;2023-02-08T08:38:30;102334.00;;;-2.70;nan
36980;BME280;22891;50.562;7.272;2023-02-08T08:40:56;102328.00;;;-2.61;nan
36980;BME280;22891;50.562;7.272;2023-02-08T08:43:22;102314.00;;;-2.37;nan
36980;BME280;22891;50.562;7.272;2023-02-08T08:45:47;102306.00;;;-2.23;nan
36980;BME280;22891;50.562;7.272;2023-02-08T08:48:13;102313.00;;;-2.37;nan
36980;BME280;22891;50.562;7.272;2023-02-08T08:50:38;102318.00;;;-2.10;nan
36980;BME280;22891;50.562;7.272;2023-02-08T08:53:04;102321.00;;;-1.97;nan
36980;BME280;22891;50.562;7.272;2023-02-08T08:55:30;102342.00;;;-2.08;nan
36980;BME280;22891;50.562;7.272;2023-02-08T08:57:56;102354.00;;;-1.87;nan
36980;BME280;22891;50.562;7.272;2023-02-08T09:00:23;102363.00;;;-1.86;nan
36980;BME280;22891;50.562;7.272;2023-02-08T09:02:48;102362.00;;;-1.75;nan
36980;BME280;22891;50.562;7.272;2023-02-08T09:05:14;102370.00;;;-1.69;nan
36980;BME280;22891;50.562;7.272;2023-02-08T09:07:40;102380.00;;;-1.55;nan
36980;BME280;22891;50.562;7.272;2023-02-08T09:10:06;102391.00;;;-1.49;nan
36980;BME280;22891;50.562;7.272;2023-02-08T09:12:31;102404.00;;;-1.41;nan
36980;BME280;22891;50.562;7.272;2023-02-08T09:14:57;102414.00;;;-1.41;nan
36980;BME280;22891;50.562;7.272;2023-02-08T09:17:23;102432.00;;;-1.13;nan
36980;BME280;22891;50.562;7.272;2023-02-08T09:19:48;102454.00;;;-0.99;nan
36980;BME280;22891;50.562;7.272;2023-02-08T09:22:14;102503.00;;;-0.89;nan
36980;BME280;22891;50.562;7.272;2023-02-08T09:24:40;102562.00;;;-0.75;nan
36980;BME280;22891;50.562;7.272;2023-02-08T09:27:05;102621.00;;;-0.56;nan
36980;BME280;22891;50.562;7.272;2023-02-08T09:29:32;102669.00;;;-0.52;nan
36980;BME280;22891;50.562;7.272;2023-02-08T09:31:59;102713.00;;;-0.56;nan
36980;BME280;22891;50.562;7.272;2023-02-08T09:34:24;102754.00;;;-0.37;nan
36980;BME280;22891;50.562;7.272;2023-02-08T09:36:50;102719.00;;;-0.20;nan
36980;BME280;22891;50.562;7.272;2023-02-08T09:39:22;102766.00;;;-0.19;nan
36980;BME280;22891;50.562;7.272;2023-02-08T09:43:03;102845.00;;;-0.15;nan
36980;BME280;22891;50.562;7.272;2023-02-08T09:45:55;102865.00;;;-0.15;nan
36980;BME280;22891;50.562;7.272;2023-02-08T09:48:33;102882.00;;;-0.09;nan
36980;BME280;22891;50.562;7.272;2023-02-08T09:51:26;102912.00;;;0.21;nan
36980;BME280;22891;50.562;7.272;2023-02-08T09:54:17;102908.00;;;0.37;nan
36980;BME280;22891;50.562;7.272;2023-02-08T09:56:45;102934.00;;;0.34;nan
36980;BME280;22891;50.562;7.272;2023-02-08T09:59:22;102951.00;;;0.44;nan
36980;BME280;22891;50.562;7.272;2023-02-08T10:01:50;102944.00;;;0.43;nan
36980;BME280;22891;50.562;7.272;2023-02-08T10:04:40;102959.00;;;0.76;nan
36980;BME280;22891;50.562;7.272;2023-02-08T10:07:13;103004.00;;;1.21;nan
36980;BME280;22891;50.562;7.272;2023-02-08T10:09:38;102976.00;;;2.10;nan
36980;BME280;22891;50.562;7.272;2023-02-08T10:12:42;102995.00;;;2.09;nan
36980;BME280;22891;50.562;7.272;2023-02-08T10:15:31;102997.00;;;2.17;nan
36980;BME280;22891;50.562;7.272;2023-02-08T10:19:13;103000.00;;;3.37;nan
36980;BME280;22891;50.562;7.272;2023-02-08T10:21:58;103010.00;;;3.86;nan
36980;BME280;22891;50.562;7.272;2023-02-08T10:26:36;103012.00;;;4.48;nan
36980;BME280;22891;50.562;7.272;2023-02-08T10:31:13;102978.00;;;3.79;nan
36980;BME280;22891;50.562;7.272;2023-02-08T10:53:02;103003.00;;;6.02;nan
36980;BME280;22891;50.562;7.272;2023-02-08T12:37:47;102899.00;;;8.95;nan
36980;BME280;22891;50.562;7.272;2023-02-08T12:40:58;102892.00;;;8.30;nan
36980;BME280;22891;50.562;7.272;2023-02-08T12:51:45;102887.00;;;8.80;nan
36980;BME280;22891;50.562;7.272;2023-02-08T12:54:30;102875.00;;;8.32;nan
36980;BME280;22891;50.562;7.272;2023-02-08T12:56:58;102872.00;;;8.73;nan
36980;BME280;22891;50.562;7.272;2023-02-08T13:00:20;102864.00;;;8.14;nan
36980;BME280;22891;50.562;7.272;2023-02-08T13:03:59;102861.00;;;7.55;nan
36980;BME280;22891;50.562;7.272;2023-02-08T13:06:32;102859.00;;;7.76;nan
36980;BME280;22891;50.562;7.272;2023-02-08T13:09:04;102850.00;;;7.86;nan
36980;BME280;22891;50.562;7.272;2023-02-08T13:11:58;102854.00;;;8.46;nan
36980;BME280;22891;50.562;7.272;2023-02-08T13:14:45;102848.00;;;8.06;nan
36980;BME280;22891;50.562;7.272;2023-02-08T13:17:56;102859.00;;;8.08;nan
36980;BME280;22891;50.562;7.272;2023-02-08T13:20:54;102836.00;;;8.32;nan
36980;BME280;22891;50.562;7.272;2023-02-08T13:23:58;102833.00;;;7.85;nan
36980;BME280;22891;50.562;7.272;2023-02-08T13:26:27;102829.00;;;7.73;nan
36980;BME280;22891;50.562;7.272;2023-02-08T13:28:59;102841.00;;;8.01;nan
36980;BME280;22891;50.562;7.272;2023-02-08T13:31:46;102834.00;;;8.14;nan
36980;BME280;22891;50.562;7.272;2023-02-08T13:35:22;102828.00;;;8.29;nan
36980;BME280;22891;50.562;7.272;2023-02-08T13:41:57;102826.00;;;8.11;nan
36980;BME280;22891;50.562;7.272;2023-02-08T13:44:30;102829.00;;;7.89;nan
36980;BME280;22891;50.562;7.272;2023-02-08T13:46:57;102823.00;;;7.88;nan
36980;BME280;22891;50.562;7.272;2023-02-08T13:49:54;102821.00;;;8.37;nan
36980;BME280;22891;50.562;7.272;2023-02-08T13:54:12;102818.00;;;8.23;nan
36980;BME280;22891;50.562;7.272;2023-02-08T13:56:40;102817.00;;;7.98;nan
36980;BME280;22891;50.562;7.272;2023-02-08T13:59:29;102821.00;;;8.21;nan
36980;BME280;22891;50.562;7.272;2023-02-08T14:03:02;102814.00;;;7.99;nan
36980;BME280;22891;50.562;7.272;2023-02-08T14:09:22;102804.00;;;7.59;nan
36980;BME280;22891;50.562;7.272;2023-02-08T14:12:58;102793.00;;;7.52;nan
36980;BME280;22891;50.562;7.272;2023-02-08T14:15:31;102797.00;;;7.75;nan
36980;BME280;22891;50.562;7.272;2023-02-08T14:17:58;102781.00;;;8.16;nan
36980;BME280;22891;50.562;7.272;2023-02-08T14:20:35;102787.00;;;8.72;nan
36980;BME280;22891;50.562;7.272;2023-02-08T14:23:07;102783.00;;;8.13;nan
36980;BME280;22891;50.562;7.272;2023-02-08T14:25:46;102787.00;;;7.95;nan
36980;BME280;22891;50.562;7.272;2023-02-08T14:33:36;102778.00;;;8.02;nan
36980;BME280;22891;50.562;7.272;2023-02-08T14:36:33;102766.00;;;7.95;nan
36980;BME280;22891;50.562;7.272;2023-02-08T14:39:29;102765.00;;;8.50;nan
36980;BME280;22891;50.562;7.272;2023-02-08T14:42:06;102780.00;;;7.82;nan
36980;BME280;22891;50.562;7.272;2023-02-08T14:44:56;102767.00;;;7.49;nan
36980;BME280;22891;50.562;7.272;2023-02-08T14:48:52;102755.00;;;7.91;nan
36980;BME280;22891;50.562;7.272;2023-02-08T14:51:25;102763.00;;;7.59;nan
36980;BME280;22891;50.562;7.272;2023-02-08T14:53:59;102762.00;;;7.59;nan
36980;BME280;22891;50.562;7.272;2023-02-08T14:56:30;102729.00;;;7.73;nan
36980;BME280;22891;50.562;7.272;2023-02-08T14:59:18;102754.00;;;7.26;nan
36980;BME280;22891;50.562;7.272;2023-02-08T15:01:55;102758.00;;;6.90;nan
36980;BME280;22891;50.562;7.272;2023-02-08T15:04:22;102749.00;;;6.93;nan
36980;BME280;22891;50.562;7.272;2023-02-08T15:07:09;102734.00;;;6.93;nan
36980;BME280;22891;50.562;7.272;2023-02-08T15:09:40;102672.00;;;7.15;nan
36980;BME280;22891;50.562;7.272;2023-02-08T15:12:28;102708.00;;;6.93;nan
36980;BME280;22891;50.562;7.272;2023-02-08T15:14:57;102730.00;;;6.58;nan
36980;BME280;22891;50.562;7.272;2023-02-08T15:20:18;102722.00;;;6.39;nan
36980;BME280;22891;50.562;7.272;2023-02-08T15:22:44;102714.00;;;6.22;nan
36980;BME280;22891;50.562;7.272;2023-02-08T15:25:26;102714.00;;;6.32;nan
36980;BME280;22891;50.562;7.272;2023-02-08T15:27:59;102721.00;;;6.26;nan
36980;BME280;22891;50.562;7.272;2023-02-08T15:30:30;102720.00;;;6.38;nan
36980;BME280;22891;50.562;7.272;2023-02-08T15:32:57;102719.00;;;6.44;nan
36980;BME280;22891;50.562;7.272;2023-02-08T15:35:24;102721.00;;;6.36;nan
36980;BME280;22891;50.562;7.272;2023-02-08T15:37:52;102717.00;;;6.21;nan
36980;BME280;22891;50.562;7.272;2023-02-08T15:40:28;102712.00;;;6.23;nan
36980;BME280;22891;50.562;7.272;2023-02-08T15:43:02;102709.00;;;6.14;nan
36980;BME280;22891;50.562;7.272;2023-02-08T15:45:28;102708.00;;;6.18;nan
36980;BME280;22891;50.562;7.272;2023-02-08T15:47:57;102714.00;;;5.88;nan
36980;BME280;22891;50.562;7.272;2023-02-08T15:50:43;102705.00;;;6.08;nan
36980;BME280;22891;50.562;7.272;2023-02-08T15:53:13;102708.00;;;6.02;nan
36980;BME280;22891;50.562;7.272;2023-02-08T15:55:46;102706.00;;;5.84;nan
36980;BME280;22891;50.562;7.272;2023-02-08T15:58:50;102699.00;;;5.43;nan
36980;BME280;22891;50.562;7.272;2023-02-08T16:01:19;102698.00;;;5.20;nan
36980;BME280;22891;50.562;7.272;2023-02-08T16:03:51;102691.00;;;5.25;nan
36980;BME280;22891;50.562;7.272;2023-02-08T16:06:26;102696.00;;;5.19;nan
36980;BME280;22891;50.562;7.272;2023-02-08T16:08:54;102690.00;;;5.14;nan
36980;BME280;22891;50.562;7.272;2023-02-08T16:11:27;102691.00;;;5.07;nan
36980;BME280;22891;50.562;7.272;2023-02-08T16:13:56;102686.00;;;4.98;nan
36980;BME280;22891;50.562;7.272;2023-02-08T16:16:45;102674.00;;;4.82;nan
36980;BME280;22891;50.562;7.272;2023-02-08T16:19:50;102680.00;;;4.76;nan
36980;BME280;22891;50.562;7.272;2023-02-08T16:22:28;102676.00;;;4.78;nan
36980;BME280;22891;50.562;7.272;2023-02-08T16:25:22;102662.00;;;4.69;nan
36980;BME280;22891;50.562;7.272;2023-02-08T16:27:48;102668.00;;;4.60;nan
36980;BME280;22891;50.562;7.272;2023-02-08T16:30:17;102673.00;;;4.43;nan
36980;BME280;22891;50.562;7.272;2023-02-08T16:32:43;102656.00;;;4.13;nan
36980;BME280;22891;50.562;7.272;2023-02-08T16:35:13;102652.00;;;4.08;nan
36980;BME280;22891;50.562;7.272;2023-02-08T16:37:43;102657.00;;;4.05;nan
36980;BME280;22891;50.562;7.272;2023-02-08T16:42:36;102654.00;;;4.00;80.95
36980;BME280;22891;50.562;7.272;2023-02-08T16:45:15;102665.00;;;3.86;82.70
36980;BME280;22891;50.562;7.272;2023-02-08T16:47:50;102654.00;;;3.63;89.89
36980;BME280;22891;50.562;7.272;2023-02-08T16:50:22;102639.00;;;3.28;100.00
36980;BME280;22891;50.562;7.272;2023-02-08T16:52:51;102636.00;;;3.15;100.00
36980;BME280;22891;50.562;7.272;2023-02-08T16:55:26;102258.00;;;3.04;100.00
36980;BME280;22891;50.562;7.272;2023-02-08T16:57:55;102504.00;;;2.72;100.00